Time;durP1;ratioP1;P1;durP2;ratioP2;P2;SDS_P1;SDS_P2;PMS_P1;PMS_P2;Temp;Humidity;BMP_temperature;BMP_pressure;BME280_temperature;BME280_humidity;BME280_pressure;Samples;Min_cycle;Max_cycle;Signal;HPM_P1;HPM_P2
2022/09/30 00:00:07;;;;;;;4.93;4.50;;;;;;;21.86;54.45;94731.59;6159140;28;105221;-64
2022/09/30 00:03:10;;;;;;;6.37;5.80;;;;;;;21.86;54.23;94731.59;6154770;28;103187;-64
2022/09/30 00:06:13;;;;;;;5.60;5.20;;;;;;;21.85;53.78;94736.13;6157572;28;106270;-65
2022/09/30 00:09:16;;;;;;;6.47;5.80;;;;;;;21.85;53.96;94752.13;6148225;28;105339;-68
2022/09/30 00:12:20;;;;;;;5.90;5.40;;;;;;;21.85;53.98;94754.00;6152259;28;106223;-65
2022/09/30 00:15:24;;;;;;;5.27;4.87;;;;;;;21.82;54.47;94758.03;6150474;28;103128;-65
2022/09/30 00:18:28;;;;;;;5.13;4.63;;;;;;;21.82;53.75;94758.03;6146624;28;103154;-69
2022/09/30 00:21:33;;;;;;;4.87;4.20;;;;;;;21.83;54.01;94759.59;6148847;28;102941;-64
2022/09/30 00:24:36;;;;;;;4.53;4.17;;;;;;;21.81;54.24;94757.22;6157696;28;103434;-65
2022/09/30 00:27:39;;;;;;;5.40;4.90;;;;;;;21.77;54.37;94756.28;6158812;28;103253;-64
2022/09/30 00:30:44;;;;;;;5.73;5.33;;;;;;;21.77;53.85;94753.63;6148914;28;104054;-64
2022/09/30 00:34:05;;;;;;;5.10;4.70;;;;;;;21.78;53.78;94760.50;6158377;28;103136;-64
2022/09/30 00:37:10;;;;;;;4.77;4.37;;;;;;;21.78;53.38;94765.84;6158332;28;103444;-65
2022/09/30 00:40:13;;;;;;;4.37;4.07;;;;;;;21.78;54.07;94757.06;6157237;28;104066;-65
2022/09/30 00:43:19;;;;;;;5.13;4.63;;;;;;;21.77;53.56;94752.84;6148560;28;105014;-64
2022/09/30 00:46:29;;;;;;;4.33;3.93;;;;;;;21.77;53.94;94753.63;6150581;28;103196;-67
2022/09/30 00:49:33;;;;;;;5.10;4.80;;;;;;;21.78;53.60;94757.06;6148964;28;103146;-65
2022/09/30 00:52:37;;;;;;;5.10;4.60;;;;;;;21.75;53.72;94755.81;6148716;28;105197;-66
2022/09/30 00:55:48;;;;;;;4.67;4.27;;;;;;;21.72;53.98;94747.66;6157980;28;103013;-65
2022/09/30 00:58:54;;;;;;;4.83;4.43;;;;;;;21.71;53.58;94756.75;6157259;28;103374;-65
2022/09/30 01:02:00;;;;;;;4.30;3.90;;;;;;;21.70;53.76;94744.53;6156423;28;103099;-64
2022/09/30 01:05:03;;;;;;;3.97;3.77;;;;;;;21.70;53.82;94766.63;6125600;28;104720;-65
2022/09/30 01:08:08;;;;;;;6.47;4.33;;;;;;;21.70;53.76;94758.63;6156425;28;103179;-67
2022/09/30 01:11:11;;;;;;;4.60;4.20;;;;;;;21.67;53.47;94748.56;6158127;28;103621;-68
2022/09/30 01:14:17;;;;;;;4.30;3.93;;;;;;;21.65;53.20;94745.44;6158227;28;103289;-67
2022/09/30 01:17:32;;;;;;;4.00;3.70;;;;;;;21.63;53.60;94752.19;6145821;28;105500;-66
2022/09/30 01:21:03;;;;;;;5.30;4.00;;;;;;;21.61;53.40;94743.72;6155612;28;103045;-65
2022/09/30 01:24:43;;;;;;;5.00;4.60;;;;;;;21.62;53.25;94745.28;6157253;28;103255;-64
2022/09/30 01:28:29;;;;;;;6.10;4.60;;;;;;;21.59;53.63;94748.56;6133966;28;103233;-64
2022/09/30 01:31:47;;;;;;;6.80;6.20;;;;;;;21.62;53.74;94750.59;6157122;28;103262;-67
2022/09/30 01:35:05;;;;;;;7.50;6.77;;;;;;;21.58;53.97;94742.47;6154664;28;102831;-69
2022/09/30 01:38:16;;;;;;;8.63;7.00;;;;;;;21.62;53.79;94748.72;6150876;28;103308;-65
2022/09/30 01:41:27;;;;;;;7.53;6.73;;;;;;;21.63;53.90;94744.97;6154449;28;104089;-64
2022/09/30 01:44:38;;;;;;;8.40;7.60;;;;;;;21.64;53.97;94746.53;6157759;28;103392;-65
2022/09/30 01:47:50;;;;;;;7.60;6.90;;;;;;;21.65;54.06;94742.00;6157081;28;103079;-67
2022/09/30 01:50:58;;;;;;;8.50;7.90;;;;;;;21.65;53.86;94742.00;6145218;28;103220;-67
2022/09/30 01:54:06;;;;;;;8.13;7.33;;;;;;;21.66;54.06;94739.03;6157647;28;103100;-70
2022/09/30 01:57:16;;;;;;;8.53;7.77;;;;;;;21.68;54.17;94752.06;6158054;28;103458;-67
2022/09/30 02:00:20;;;;;;;8.70;8.00;;;;;;;21.68;53.60;94746.72;6157364;28;103870;-67
2022/09/30 02:03:30;;;;;;;7.93;7.37;;;;;;;21.66;53.78;94743.56;6148802;28;105868;-67
2022/09/30 02:06:38;;;;;;;8.60;7.80;;;;;;;21.66;53.93;94746.22;6158300;28;102869;-67
2022/09/30 02:09:45;;;;;;;8.50;7.80;;;;;;;21.65;54.12;94742.78;6158103;28;103455;-67
2022/09/30 02:12:56;;;;;;;8.77;8.07;;;;;;;21.65;53.76;94747.31;6147266;28;103101;-67
2022/09/30 02:16:11;;;;;;;8.83;7.93;;;;;;;21.65;53.97;94749.97;6157110;28;104286;-67
2022/09/30 02:19:21;;;;;;;7.93;7.27;;;;;;;21.65;53.68;94769.41;6156820;28;103028;-67
2022/09/30 02:22:30;;;;;;;8.90;8.20;;;;;;;21.62;53.98;94758.59;6157255;28;103160;-67
2022/09/30 02:25:39;;;;;;;8.87;7.97;;;;;;;21.63;53.94;94762.81;6148511;28;102924;-67
2022/09/30 02:28:46;;;;;;;7.47;6.93;;;;;;;21.63;53.90;94760.94;6158518;28;103109;-67
2022/09/30 02:31:54;;;;;;;8.23;7.60;;;;;;;21.65;53.69;94779.28;6160180;28;103742;-67
2022/09/30 02:35:04;;;;;;;8.60;7.50;;;;;;;21.63;53.98;94782.25;6161397;28;103830;-67
2022/09/30 02:38:15;;;;;;;8.93;8.23;;;;;;;21.61;54.05;94770.34;6154439;28;105776;-67
2022/09/30 02:41:22;;;;;;;8.40;7.80;;;;;;;21.61;53.94;94763.13;6160051;28;103162;-67
2022/09/30 02:44:26;;;;;;;9.17;8.37;;;;;;;21.57;53.49;94766.72;6161321;28;105261;-67
2022/09/30 02:47:36;;;;;;;7.70;7.10;;;;;;;21.56;53.35;94744.66;6150565;28;104260;-67
2022/09/30 02:50:47;;;;;;;8.07;7.37;;;;;;;21.57;54.16;94758.75;6159839;28;103452;-67
2022/09/30 02:53:57;;;;;;;7.53;6.93;;;;;;;21.56;53.54;94749.19;6158433;28;106910;-67
2022/09/30 02:57:08;;;;;;;6.70;6.20;;;;;;;21.58;53.65;94765.63;6160440;28;103228;-67
2022/09/30 03:00:12;;;;;;;6.70;6.10;;;;;;;21.55;53.46;94756.41;6148671;28;104450;-67
2022/09/30 03:03:19;;;;;;;6.40;5.90;;;;;;;21.54;53.52;94767.34;6159586;28;103093;-74
2022/09/30 03:06:24;;;;;;;8.93;8.07;;;;;;;21.56;53.01;94771.28;6163096;28;103555;-68
2022/09/30 03:09:28;;;;;;;11.13;10.13;;;;;;;21.63;53.00;94770.81;6150833;28;105695;-68
2022/09/30 03:12:42;;;;;;;12.07;11.07;;;;;;;21.67;52.76;94766.44;6154915;28;102794;-68
2022/09/30 03:16:03;;;;;;;11.77;9.37;;;;;;;21.71;52.83;94794.81;6143418;28;103098;-68
2022/09/30 03:19:24;;;;;;;12.30;11.30;;;;;;;21.72;52.74;94788.41;6160251;28;103107;-68
2022/09/30 03:22:47;;;;;;;8.40;7.73;;;;;;;21.65;52.75;94784.59;6143554;28;103132;-68
2022/09/30 03:26:01;;;;;;;15.83;14.27;;;;;;;21.72;52.82;94795.59;6155255;28;103325;-68
2022/09/30 03:29:14;;;;;;;18.27;16.77;;;;;;;21.73;52.43;94781.19;6153293;28;106002;-68
2022/09/30 03:32:30;;;;;;;11.70;10.50;;;;;;;21.73;52.78;94797.16;6137474;28;103466;-67
2022/09/30 03:35:45;;;;;;;10.57;9.67;;;;;;;21.74;52.85;94788.09;6155179;28;104552;-67
2022/09/30 03:38:57;;;;;;;10.50;9.37;;;;;;;21.73;52.54;94786.53;6155227;28;104438;-67
2022/09/30 03:42:09;;;;;;;10.57;9.53;;;;;;;21.65;53.24;94790.72;6151473;28;106620;-67
2022/09/30 03:45:19;;;;;;;11.80;9.27;;;;;;;21.66;52.84;94791.50;6131050;28;104254;-67
2022/09/30 03:48:24;;;;;;;10.80;9.80;;;;;;;21.74;53.17;94793.41;6145664;28;103977;-67
2022/09/30 03:51:29;;;;;;;10.80;9.77;;;;;;;21.76;52.92;94796.53;6155059;28;103569;-67
2022/09/30 03:54:37;;;;;;;11.83;10.50;;;;;;;21.77;52.85;94809.56;6152593;28;103082;-67
2022/09/30 03:57:40;;;;;;;15.17;13.60;;;;;;;21.74;53.50;94804.84;6130757;28;103271;-67
2022/09/30 04:00:48;;;;;;;14.87;13.57;;;;;;;21.74;52.57;94809.41;6159051;28;103473;-67
2022/09/30 04:03:52;;;;;;;11.83;10.83;;;;;;;21.74;52.32;94820.84;6159694;28;103033;-66
2022/09/30 04:06:55;;;;;;;11.13;9.97;;;;;;;21.73;52.76;94811.28;6155081;28;104212;-67
2022/09/30 04:10:00;;;;;;;11.87;10.70;;;;;;;21.81;53.17;94813.16;6153728;28;105538;-67
2022/09/30 04:13:03;;;;;;;11.57;10.47;;;;;;;21.87;53.83;94815.72;6159484;28;103484;-67
2022/09/30 04:16:07;;;;;;;10.93;9.83;;;;;;;21.86;52.79;94820.28;6158805;28;103122;-67
2022/09/30 04:19:11;;;;;;;12.20;10.23;;;;;;;21.95;53.53;94814.97;6148903;28;102868;-67
2022/09/30 04:22:14;;;;;;;11.30;10.13;;;;;;;21.92;52.40;94804.94;6156172;28;103550;-66
2022/09/30 04:25:19;;;;;;;11.57;9.80;;;;;;;21.35;53.42;94799.53;6160154;28;103058;-65
2022/09/30 04:28:22;;;;;;;10.67;9.40;;;;;;;21.36;53.21;94803.78;6160438;28;103213;-64
2022/09/30 04:31:25;;;;;;;10.80;9.60;;;;;;;21.47;53.21;94807.72;6151135;28;103150;-64
2022/09/30 04:34:28;;;;;;;10.43;9.53;;;;;;;21.51;52.64;94817.47;6159610;28;102744;-64
2022/09/30 04:37:32;;;;;;;9.60;8.70;;;;;;;21.52;52.62;94815.59;6159303;28;103294;-67
2022/09/30 04:40:38;;;;;;;9.43;8.53;;;;;;;21.49;53.01;94832.94;6159755;28;102979;-64
2022/09/30 04:43:45;;;;;;;11.10;9.17;;;;;;;21.50;52.81;94834.50;6146588;28;104433;-65
2022/09/30 04:46:49;;;;;;;9.50;8.60;;;;;;;21.50;52.40;94821.19;6157480;28;103373;-65
2022/09/30 04:49:52;;;;;;;9.43;8.63;;;;;;;21.48;52.80;94828.72;6157077;28;103249;-72
2022/09/30 04:52:56;;;;;;;10.43;9.40;;;;;;;21.50;52.91;94834.50;6150881;28;103664;-65
2022/09/30 04:56:02;;;;;;;10.20;9.30;;;;;;;21.45;52.53;94853.28;6154690;28;103212;-65
2022/09/30 04:59:05;;;;;;;9.67;8.70;;;;;;;21.49;52.96;94862.22;6159871;28;102823;-65
2022/09/30 05:02:09;;;;;;;10.23;9.23;;;;;;;21.50;52.31;94869.13;6159927;28;103099;-65
2022/09/30 05:05:13;;;;;;;10.60;9.67;;;;;;;21.49;52.61;94872.88;6149033;28;103095;-64
2022/09/30 05:08:16;;;;;;;10.10;9.30;;;;;;;21.49;52.53;94867.53;6159437;28;103618;-64
2022/09/30 05:11:22;;;;;;;9.83;8.93;;;;;;;21.45;52.81;94871.13;6159969;28;103235;-66
2022/09/30 05:14:25;;;;;;;9.93;8.93;;;;;;;21.45;53.09;94855.94;6159105;28;104548;-64
2022/09/30 05:17:30;;;;;;;10.90;10.00;;;;;;;21.46;52.86;94862.84;6149462;28;106103;-65
2022/09/30 05:20:33;;;;;;;12.30;11.20;;;;;;;21.46;53.24;94854.06;6158335;28;103172;-64
2022/09/30 05:23:37;;;;;;;13.17;11.57;;;;;;;21.47;53.13;94869.72;6159396;28;103508;-64
2022/09/30 05:26:41;;;;;;;12.80;11.70;;;;;;;21.48;52.67;94875.84;6154731;28;103167;-64
2022/09/30 05:29:44;;;;;;;14.47;13.10;;;;;;;21.50;52.78;94878.97;6153559;28;104250;-66
2022/09/30 05:32:47;;;;;;;13.27;12.17;;;;;;;21.49;52.74;94882.72;6159008;28;103459;-64
2022/09/30 05:35:50;;;;;;;13.10;11.67;;;;;;;21.51;52.89;94891.22;6158146;28;103285;-64
2022/09/30 05:38:54;;;;;;;13.87;12.57;;;;;;;21.52;52.58;94892.78;6148917;28;103694;-65
2022/09/30 05:41:59;;;;;;;13.43;12.13;;;;;;;21.51;52.84;94900.00;6159590;28;103269;-64
2022/09/30 05:45:02;;;;;;;14.17;12.80;;;;;;;21.51;52.75;94901.88;6158821;28;104201;-64
2022/09/30 05:48:05;;;;;;;13.63;12.40;;;;;;;21.52;53.17;94903.44;6159465;28;102904;-64
2022/09/30 05:51:08;;;;;;;12.97;11.77;;;;;;;21.47;53.06;94899.00;6147374;28;104606;-65
2022/09/30 05:54:12;;;;;;;12.23;11.07;;;;;;;21.50;52.67;94908.25;6158811;28;104213;-67
2022/09/30 05:57:19;;;;;;;12.47;11.27;;;;;;;21.51;52.70;94920.50;6158932;28;103170;-65
2022/09/30 06:00:22;;;;;;;13.70;12.30;;;;;;;21.50;52.93;94917.03;6159224;28;102936;-66
2022/09/30 06:03:25;;;;;;;12.83;11.53;;;;;;;21.49;52.95;94917.34;6153214;28;103586;-64
2022/09/30 06:06:29;;;;;;;12.10;11.00;;;;;;;21.49;53.06;94930.66;6166652;28;102995;-65
2022/09/30 06:09:35;;;;;;;12.80;11.73;;;;;;;21.47;52.95;94925.63;6167362;28;103127;-67
2022/09/30 06:12:40;;;;;;;12.40;11.20;;;;;;;21.49;52.49;94926.13;6156467;28;103067;-65
2022/09/30 06:15:43;;;;;;;13.10;11.80;;;;;;;21.50;53.00;94938.34;6166625;28;103119;-64
2022/09/30 06:18:46;;;;;;;12.60;11.43;;;;;;;21.52;52.70;94925.53;6167392;28;102863;-64
2022/09/30 06:21:50;;;;;;;13.23;12.00;;;;;;;21.56;53.25;94925.69;6166039;28;103105;-64
2022/09/30 06:24:53;;;;;;;12.87;11.57;;;;;;;21.61;52.51;94933.56;6156126;28;102868;-63
2022/09/30 06:27:58;;;;;;;13.77;12.20;;;;;;;21.60;52.54;94931.97;6166498;28;104079;-64
2022/09/30 06:31:02;;;;;;;12.50;11.40;;;;;;;21.55;52.46;94926.00;6166636;28;104221;-63
2022/09/30 06:34:05;;;;;;;11.50;10.50;;;;;;;21.65;52.95;94936.38;6166298;28;104121;-64
2022/09/30 06:37:10;;;;;;;12.70;11.47;;;;;;;21.68;52.52;94933.13;6156220;28;103098;-64
2022/09/30 06:40:13;;;;;;;12.20;11.00;;;;;;;21.80;52.18;94938.66;6166333;28;103031;-64
2022/09/30 06:43:18;;;;;;;10.67;9.67;;;;;;;21.76;52.38;94951.03;6166279;28;103562;-63
2022/09/30 06:46:23;;;;;;;15.00;13.70;;;;;;;21.72;52.71;94942.88;6160731;28;103740;-63
2022/09/30 06:49:33;;;;;;;14.33;12.93;;;;;;;21.75;52.58;94944.91;6162050;28;103034;-63
2022/09/30 06:52:51;;;;;;;14.10;12.80;;;;;;;21.73;53.10;94960.41;6166182;28;103563;-64
2022/09/30 06:55:56;;;;;;;13.73;12.43;;;;;;;21.72;52.71;94966.06;6165785;28;103219;-64
2022/09/30 06:59:00;;;;;;;13.27;12.07;;;;;;;21.74;52.78;94961.19;6154989;28;104925;-64
2022/09/30 07:02:03;;;;;;;12.30;11.10;;;;;;;21.76;52.75;94967.00;6165728;28;103216;-64
2022/09/30 07:05:07;;;;;;;12.13;11.03;;;;;;;21.75;52.84;94970.75;6165811;28;103295;-63
2022/09/30 07:08:10;;;;;;;11.30;10.30;;;;;;;21.75;52.79;94984.88;6165834;28;103306;-64
2022/09/30 07:11:15;;;;;;;12.17;10.97;;;;;;;21.77;52.53;94980.03;6155243;28;104290;-64
2022/09/30 07:14:22;;;;;;;11.23;10.23;;;;;;;21.80;52.18;94981.28;6164970;28;102707;-65
2022/09/30 07:17:26;;;;;;;11.07;10.17;;;;;;;21.85;52.69;94983.09;6162122;28;105910;-65
2022/09/30 07:20:29;;;;;;;11.83;10.00;;;;;;;21.87;52.21;94988.88;6156403;28;103512;-64
2022/09/30 07:23:32;;;;;;;11.37;10.37;;;;;;;21.87;52.82;94995.00;6156349;28;103203;-65
2022/09/30 07:26:35;;;;;;;11.43;10.40;;;;;;;21.93;52.21;94999.09;6161098;28;103536;-65
2022/09/30 07:29:40;;;;;;;10.70;9.80;;;;;;;22.08;52.35;94998.72;6161418;28;103285;-64
2022/09/30 07:33:02;;;;;;;11.20;10.30;;;;;;;22.20;52.36;95005.34;6150270;28;103107;-64
2022/09/30 07:36:07;;;;;;;11.53;10.67;;;;;;;22.29;52.45;95014.94;6160633;28;103151;-64
2022/09/30 07:39:11;;;;;;;12.00;11.00;;;;;;;22.36;52.32;95022.53;6161143;28;103100;-65
2022/09/30 07:42:20;;;;;;;10.77;9.87;;;;;;;22.44;52.63;95018.31;6160846;28;103322;-66
2022/09/30 07:45:26;;;;;;;11.00;10.20;;;;;;;22.57;52.80;95012.91;6151203;28;103101;-64
2022/09/30 07:48:46;;;;;;;10.10;9.20;;;;;;;22.66;52.57;95003.03;6161335;28;104017;-64
2022/09/30 07:51:49;;;;;;;10.87;9.87;;;;;;;22.72;52.47;95006.34;6161083;28;104149;-64
2022/09/30 07:54:52;;;;;;;11.03;10.13;;;;;;;22.74;52.44;95003.38;6151081;28;103162;-65
2022/09/30 07:57:55;;;;;;;12.27;11.00;;;;;;;22.76;52.45;95001.97;6160450;28;103943;-64
2022/09/30 08:01:00;;;;;;;10.70;9.73;;;;;;;22.79;52.00;95000.56;6161031;28;103611;-65
2022/09/30 08:04:05;;;;;;;10.70;9.80;;;;;;;22.83;52.21;95020.16;6160585;28;103075;-65
2022/09/30 08:07:08;;;;;;;11.10;10.20;;;;;;;22.84;52.32;95019.84;6151517;28;104334;-66
2022/09/30 08:10:12;;;;;;;9.90;9.10;;;;;;;22.90;52.01;95025.84;6160583;28;103187;-67
2022/09/30 08:13:15;;;;;;;11.07;10.10;;;;;;;22.93;51.88;95030.56;6160513;28;103265;-65
2022/09/30 08:16:20;;;;;;;10.37;9.47;;;;;;;22.94;51.96;95038.25;6161356;28;103100;-64
2022/09/30 08:19:24;;;;;;;9.10;8.40;;;;;;;23.00;51.64;95041.56;6151187;28;104777;-64
2022/09/30 08:22:28;;;;;;;9.03;8.20;;;;;;;23.08;51.19;95034.66;6160845;28;103065;-63
2022/09/30 08:25:31;;;;;;;11.00;9.90;;;;;;;23.06;51.12;95026.97;6160135;28;102931;-63
2022/09/30 08:28:34;;;;;;;14.63;13.43;;;;;;;23.11;51.29;95026.03;6154820;28;103144;-63
2022/09/30 08:31:39;;;;;;;14.43;13.23;;;;;;;23.15;51.24;95033.09;6155036;28;103213;-63
2022/09/30 08:34:42;;;;;;;12.97;11.97;;;;;;;23.19;50.82;95039.41;6159512;28;103123;-63
2022/09/30 08:37:45;;;;;;;12.97;11.77;;;;;;;23.25;50.77;95046.16;6160137;28;103297;-64
2022/09/30 08:41:01;;;;;;;12.50;11.43;;;;;;;23.29;51.07;95049.78;6148942;28;103107;-63
2022/09/30 08:44:20;;;;;;;13.23;12.23;;;;;;;23.32;51.00;95026.22;6160431;28;103420;-63
2022/09/30 08:47:43;;;;;;;12.13;11.10;;;;;;;23.37;50.75;95039.44;6160231;28;103998;-63
2022/09/30 08:50:56;;;;;;;11.73;10.80;;;;;;;23.36;50.52;95049.34;6157523;28;105911;-63
2022/09/30 08:54:04;;;;;;;12.40;11.37;;;;;;;23.40;50.69;95050.28;6154238;28;103419;-63
2022/09/30 08:57:11;;;;;;;12.17;11.20;;;;;;;23.42;50.93;95058.75;6159263;28;103763;-63
2022/09/30 09:00:16;;;;;;;11.00;10.13;;;;;;;23.42;50.70;95053.44;6159821;28;103328;-64
2022/09/30 09:03:23;;;;;;;11.13;10.20;;;;;;;23.42;50.59;95049.97;6149444;28;104433;-64
2022/09/30 09:06:30;;;;;;;10.40;9.50;;;;;;;23.44;51.01;95061.13;6159871;28;103137;-64
2022/09/30 09:09:48;;;;;;;10.60;9.80;;;;;;;23.44;50.77;95067.25;6159868;28;103241;-64
2022/09/30 09:12:58;;;;;;;10.57;9.67;;;;;;;23.46;50.91;95053.56;6159853;28;104034;-65
2022/09/30 09:16:09;;;;;;;9.73;8.83;;;;;;;23.45;50.39;95050.13;6149885;28;103089;-64
2022/09/30 09:19:17;;;;;;;10.87;9.97;;;;;;;23.48;50.71;95064.72;6158618;28;102762;-64
2022/09/30 09:22:20;;;;;;;9.90;9.10;;;;;;;23.49;50.72;95061.75;6159624;28;105816;-64
2022/09/30 09:25:27;;;;;;;10.17;9.33;;;;;;;23.51;50.32;95056.09;6153589;28;103247;-66
2022/09/30 09:28:36;;;;;;;10.27;9.37;;;;;;;23.54;50.83;95066.16;6155704;28;103212;-64
2022/09/30 09:31:39;;;;;;;10.03;9.17;;;;;;;23.54;50.80;95069.63;6159443;28;103630;-65
2022/09/30 09:34:45;;;;;;;9.00;8.30;;;;;;;23.54;50.53;95064.28;6158521;28;103053;-65
2022/09/30 09:41:33;;;;;;;9.43;8.53;;;;;;;23.55;50.43;95067.75;6159139;28;103676;-64
2022/09/30 09:44:43;;;;;;;10.70;9.80;;;;;;;23.58;50.50;95062.53;6159094;28;103316;-64
2022/09/30 09:47:51;;;;;;;9.53;8.73;;;;;;;23.58;50.36;95064.44;6154268;28;102883;-64
2022/09/30 09:51:03;;;;;;;11.47;10.37;;;;;;;23.57;50.18;95060.97;6153046;28;102989;-65
2022/09/30 09:54:11;;;;;;;10.40;9.60;;;;;;;23.58;50.43;95062.53;6159021;28;103231;-64
2022/09/30 09:57:16;;;;;;;10.03;9.20;;;;;;;23.61;50.30;95066.47;6159247;28;104946;-65
2022/09/30 10:03:47;;;;;;;9.33;8.60;;;;;;;23.62;50.31;95067.25;6158229;28;103142;-64
2022/09/30 10:06:54;;;;;;;10.43;9.53;;;;;;;23.62;50.44;95072.59;6158713;28;103635;-64
2022/09/30 10:10:15;;;;;;;10.53;9.53;;;;;;;23.61;50.47;95058.44;6158000;28;103102;-64
2022/09/30 10:13:27;;;;;;;9.70;8.90;;;;;;;23.60;50.53;95060.34;6152425;28;104661;-64
2022/09/30 10:16:34;;;;;;;10.27;9.37;;;;;;;23.59;50.52;95057.97;6158628;28;105824;-64
2022/09/30 10:19:43;;;;;;;10.67;9.77;;;;;;;23.56;50.58;95054.06;6158580;28;103484;-64
2022/09/30 10:22:48;;;;;;;12.33;11.20;;;;;;;23.54;50.48;95045.59;6147406;28;103227;-64
2022/09/30 10:26:06;;;;;;;13.40;11.87;;;;;;;23.50;50.59;95043.84;6158029;28;103410;-64
2022/09/30 10:29:26;;;;;;;13.10;12.00;;;;;;;23.51;50.16;95040.84;6158359;28;103154;-64
2022/09/30 10:32:29;;;;;;;12.97;11.77;;;;;;;23.50;49.88;95028.59;6157322;28;103109;-64
2022/09/30 10:35:32;;;;;;;13.60;12.50;;;;;;;23.48;49.66;95028.13;6147095;28;103326;-65
2022/09/30 10:38:45;;;;;;;15.20;13.63;;;;;;;23.46;50.33;95026.88;6158006;28;102919;-64
2022/09/30 10:41:48;;;;;;;15.20;13.90;;;;;;;23.42;50.34;95031.28;6158245;28;103421;-64
2022/09/30 10:44:55;;;;;;;15.73;14.23;;;;;;;23.40;49.85;95028.13;6152903;28;103708;-65
2022/09/30 10:48:05;;;;;;;16.43;15.00;;;;;;;23.37;50.85;95039.44;6153796;28;104074;-64
2022/09/30 10:51:26;;;;;;;18.70;17.07;;;;;;;23.37;50.03;95042.13;6161284;28;103373;-64
2022/09/30 10:54:53;;;;;;;18.33;16.83;;;;;;;23.35;50.03;95037.06;6161849;28;103171;-67
2022/09/30 10:58:03;;;;;;;17.23;15.83;;;;;;;23.33;50.09;95044.63;6147053;28;102924;-64
2022/09/30 11:01:17;;;;;;;18.77;17.03;;;;;;;23.29;50.37;95038.34;6161737;28;104689;-64
2022/09/30 11:04:27;;;;;;;20.80;19.00;;;;;;;23.25;50.07;95042.69;6161384;28;102983;-65
2022/09/30 11:07:36;;;;;;;19.47;17.87;;;;;;;23.22;50.42;95043.34;6157177;28;102920;-64
2022/09/30 11:10:48;;;;;;;20.77;19.00;;;;;;;23.19;50.07;95044.75;6157845;28;104273;-66
2022/09/30 11:13:57;;;;;;;22.47;20.47;;;;;;;23.18;50.37;95047.69;6162294;28;104110;-64
2022/09/30 11:17:10;;;;;;;24.53;22.43;;;;;;;23.15;50.43;95043.78;6161215;28;103287;-64
2022/09/30 11:20:19;;;;;;;25.70;23.50;;;;;;;23.15;50.02;95041.09;6151346;28;103906;-64
2022/09/30 11:23:30;;;;;;;26.00;23.70;;;;;;;23.21;50.29;95041.75;6161788;28;104638;-65
2022/09/30 11:26:48;;;;;;;28.37;25.90;;;;;;;23.27;50.25;95035.94;6161969;28;103205;-64
2022/09/30 11:30:02;;;;;;;27.00;24.60;;;;;;;23.27;50.11;95035.94;6157397;28;104386;-65
2022/09/30 11:33:19;;;;;;;28.00;25.60;;;;;;;23.27;50.17;95024.47;6155501;28;103340;-63
2022/09/30 11:36:31;;;;;;;27.97;25.57;;;;;;;23.24;50.35;95041.91;6161389;28;103248;-64
2022/09/30 11:39:59;;;;;;;30.93;28.20;;;;;;;23.21;50.30;95037.22;6161318;28;104251;-64
2022/09/30 11:43:14;;;;;;;28.93;26.47;;;;;;;23.17;50.36;95052.25;6147888;28;103173;-64
2022/09/30 11:46:54;;;;;;;29.83;27.23;;;;;;;23.12;50.25;95041.75;6160893;28;103243;-64
2022/09/30 11:50:15;;;;;;;29.93;27.33;;;;;;;23.17;50.53;95044.25;6120592;28;103186;-64
2022/09/30 11:53:30;;;;;;;32.13;29.27;;;;;;;23.12;50.10;95047.06;6150670;28;105107;-64
2022/09/30 11:56:42;;;;;;;34.20;31.20;;;;;;;23.06;50.33;95040.31;6160988;28;103080;-64
2022/09/30 11:59:54;;;;;;;35.60;32.30;;;;;;;23.09;50.00;95045.03;6160838;28;102908;-64
2022/09/30 12:03:05;;;;;;;35.03;31.93;;;;;;;23.05;50.31;95044.09;6160141;28;102856;-64
2022/09/30 12:06:20;;;;;;;34.00;31.20;;;;;;;23.05;50.61;95045.97;6151000;28;104430;-65
2022/09/30 12:09:26;;;;;;;33.50;30.67;;;;;;;23.06;50.12;95040.31;6160291;28;104733;-63
2022/09/30 12:12:31;;;;;;;32.80;29.97;;;;;;;23.04;49.96;95045.19;6160566;28;103239;-65
2022/09/30 12:15:36;;;;;;;32.57;29.87;;;;;;;23.05;50.73;95053.97;6154943;28;103074;-63
2022/09/30 12:18:44;;;;;;;32.03;29.33;;;;;;;23.04;50.44;95053.19;6155501;28;106045;-64
2022/09/30 12:21:53;;;;;;;32.10;29.30;;;;;;;23.04;50.59;95044.41;6160102;28;103098;-63
2022/09/30 12:24:56;;;;;;;31.80;29.03;;;;;;;23.05;50.84;95044.09;6160415;28;103239;-64
2022/09/30 12:30:15;;;;;;;33.23;30.40;;;;;;;23.03;50.83;95048.97;6137502;28;103292;-64
2022/09/30 12:32:00;;;;;;;32.07;29.30;;;;;;;23.03;50.55;95050.84;6136187;28;103066;-63
2022/09/30 12:35:20;;;;;;;33.57;30.67;;;;;;;23.02;50.79;95058.06;6136229;28;102940;-64
2022/09/30 12:38:37;;;;;;;32.60;29.60;;;;;;;23.00;51.19;95058.34;6131350;28;104580;-65
2022/09/30 12:42:02;;;;;;;29.90;27.40;;;;;;;23.01;50.83;95059.13;6134893;28;103270;-64
2022/09/30 12:45:24;;;;;;;25.63;23.40;;;;;;;23.01;50.59;95051.91;6135252;28;103108;-65
2022/09/30 12:48:36;;;;;;;26.10;24.00;;;;;;;23.01;49.61;95049.25;6135971;28;103033;-64
2022/09/30 12:51:43;;;;;;;27.10;24.80;;;;;;;23.00;50.69;95046.88;6124052;28;103080;-64
2022/09/30 12:54:51;;;;;;;29.63;27.03;;;;;;;22.99;50.47;95056.78;6135410;28;103123;-64
2022/09/30 12:57:55;;;;;;;30.63;28.03;;;;;;;22.99;50.56;95061.34;6135859;28;104128;-64
2022/09/30 13:01:06;;;;;;;27.83;25.53;;;;;;;22.96;50.48;95053.94;6129888;28;103461;-65
2022/09/30 13:04:18;;;;;;;29.47;26.97;;;;;;;22.96;50.48;95056.63;6130497;28;103108;-64
2022/09/30 13:07:22;;;;;;;27.50;25.10;;;;;;;22.96;50.32;95056.63;6135319;28;104201;-64
2022/09/30 13:10:29;;;;;;;28.00;25.60;;;;;;;22.96;50.39;95054.75;6135376;28;103415;-65
2022/09/30 13:13:33;;;;;;;26.67;24.37;;;;;;;23.06;50.28;95058.22;6124089;28;103321;-65
2022/09/30 13:17:04;;;;;;;25.27;23.17;;;;;;;23.09;51.03;95057.59;6135544;28;104308;-64
2022/09/30 13:20:40;;;;;;;25.47;23.17;;;;;;;23.12;50.68;95052.41;6135551;28;104875;-64
2022/09/30 13:23:46;;;;;;;22.70;20.80;;;;;;;23.10;50.68;95054.63;6129742;28;104053;-66
2022/09/30 13:27:08;;;;;;;22.27;20.47;;;;;;;23.15;50.68;95056.34;6130618;28;102969;-65
2022/09/30 13:30:35;;;;;;;21.93;20.20;;;;;;;23.16;50.86;95064.03;6134980;28;103318;-64
2022/09/30 13:33:43;;;;;;;22.77;20.87;;;;;;;23.19;50.82;95060.75;6134430;28;103238;-65
2022/09/30 13:37:00;;;;;;;21.40;19.57;;;;;;;23.16;50.77;95069.38;6124921;28;105992;-65
2022/09/30 13:40:13;;;;;;;20.27;18.57;;;;;;;23.18;50.38;95063.72;6135283;28;103821;-65
2022/09/30 13:43:21;;;;;;;20.03;18.33;;;;;;;23.16;50.92;95060.59;6134732;28;104069;-65
2022/09/30 13:46:34;;;;;;;19.60;17.80;;;;;;;23.18;51.02;95061.84;6129306;28;103307;-65
2022/09/30 13:49:43;;;;;;;19.80;18.10;;;;;;;23.17;51.18;95057.59;6130651;28;103167;-65
2022/09/30 13:52:52;;;;;;;19.23;17.63;;;;;;;23.18;51.01;95066.38;6134211;28;103321;-65
2022/09/30 13:55:59;;;;;;;18.80;17.07;;;;;;;23.15;50.99;95067.81;6134662;28;103223;-68
2022/09/30 13:59:25;;;;;;;17.07;15.47;;;;;;;23.07;50.67;95068.59;6124192;28;103408;-68
2022/09/30 14:02:56;;;;;;;14.67;13.57;;;;;;;23.01;50.91;95070.59;6134290;28;103615;-68
2022/09/30 14:06:09;;;;;;;13.90;12.70;;;;;;;22.97;50.67;95068.88;6134344;28;104154;-68
2022/09/30 14:09:28;;;;;;;14.93;13.70;;;;;;;22.95;50.55;95079.06;6129265;28;103368;-68
2022/09/30 14:12:43;;;;;;;13.30;12.20;;;;;;;22.97;50.46;95079.53;6133399;28;103110;-66
2022/09/30 14:16:11;;;;;;;11.50;10.50;;;;;;;22.97;50.10;95084.88;6133836;28;103232;-68
2022/09/30 14:19:33;;;;;;;11.80;10.80;;;;;;;22.95;49.96;95087.06;6134105;28;102901;-68
2022/09/30 14:22:37;;;;;;;11.47;10.47;;;;;;;22.99;50.00;95091.47;6123659;28;103136;-65
2022/09/30 14:25:49;;;;;;;10.50;9.70;;;;;;;23.02;49.71;95100.78;6137094;28;103182;-65
2022/09/30 14:29:00;;;;;;;10.83;9.93;;;;;;;22.98;49.34;95092.56;6138544;28;102903;-66
2022/09/30 14:32:11;;;;;;;10.97;9.97;;;;;;;23.01;49.27;95096.50;6131672;28;103164;-66